createdAt,value
2022-08-10T00:01:53.947Z,64452.44
2022-08-10T00:04:23.360Z,64452.44
2022-08-10T00:06:52.480Z,64452.44
2022-08-10T00:09:19.057Z,64452.44
2022-08-10T00:11:45.566Z,64452.44
2022-08-10T00:14:12.052Z,64452.44
2022-08-10T00:16:38.560Z,64452.44
2022-08-10T00:19:05.078Z,64452.44
2022-08-10T00:21:31.565Z,64452.44
2022-08-10T00:23:58.039Z,64452.44
2022-08-10T00:26:24.529Z,64452.44
2022-08-10T00:28:51.080Z,64452.44
2022-08-10T00:31:17.549Z,64452.44
2022-08-10T00:33:44.041Z,64452.44
2022-08-10T00:36:10.574Z,64452.44
2022-08-10T00:38:37.603Z,64452.44
2022-08-10T00:41:04.594Z,64452.44
2022-08-10T00:43:31.134Z,64452.44
2022-08-10T00:45:58.497Z,64452.44
2022-08-10T00:48:30.966Z,64452.44
2022-08-10T00:51:01.396Z,64452.44
2022-08-10T00:53:28.616Z,64452.44
2022-08-10T00:57:12.665Z,64452.44
2022-08-10T00:58:42.617Z,64452.44
2022-08-10T01:02:10.224Z,64452.44
2022-08-10T01:04:36.152Z,64452.44
2022-08-10T01:06:47.689Z,64452.44
2022-08-10T01:09:40.368Z,64452.44
2022-08-10T01:12:47.000Z,64452.44
2022-08-10T01:15:03.682Z,64452.44
2022-08-10T01:17:51.563Z,64452.44
2022-08-10T01:20:27.347Z,64452.44
2022-08-10T01:23:29.884Z,64452.44
2022-08-10T01:26:30.667Z,64452.44
2022-08-10T01:29:03.719Z,64452.44
2022-08-10T01:31:33.357Z,64452.44
2022-08-10T01:34:04.805Z,64452.44
2022-08-10T01:36:35.250Z,64452.44
2022-08-10T01:39:03.751Z,64452.44
2022-08-10T01:41:45.918Z,64452.44
2022-08-10T01:44:28.246Z,64452.44
2022-08-10T01:47:22.085Z,64452.44
2022-08-10T01:49:49.904Z,64452.44
2022-08-10T01:52:18.457Z,64452.44
2022-08-10T01:54:45.617Z,64452.44
2022-08-10T01:57:13.868Z,64452.44
2022-08-10T01:59:43.781Z,64452.44
2022-08-10T02:02:26.869Z,64452.44
2022-08-10T02:04:54.588Z,64452.44
2022-08-10T02:07:23.392Z,64452.44
2022-08-10T02:09:52.382Z,64452.44
2022-08-10T02:12:20.560Z,64452.44
2022-08-10T02:14:58.916Z,64452.44
2022-08-10T02:18:00.868Z,64452.44
2022-08-10T02:20:17.204Z,64452.44
2022-08-10T02:22:44.262Z,64452.44
2022-08-10T02:25:41.066Z,64452.44
2022-08-10T02:28:00.086Z,64452.44
2022-08-10T02:30:28.088Z,64452.44
2022-08-10T02:32:55.852Z,64452.44
2022-08-10T02:35:23.716Z,64452.44
2022-08-10T02:37:56.953Z,64452.44
2022-08-10T02:45:13.532Z,64452.44
2022-08-10T02:45:19.996Z,64452.44
2022-08-10T02:46:29.414Z,64452.44
2022-08-10T02:49:05.369Z,64452.44
2022-08-10T02:52:08.150Z,64452.44
2022-08-10T02:54:43.130Z,64452.44
2022-08-10T02:57:13.704Z,64452.44
2022-08-10T02:59:43.011Z,64452.44
2022-08-10T03:02:11.926Z,64452.44
2022-08-10T03:04:55.250Z,64452.44
2022-08-10T03:07:43.153Z,64452.44
2022-08-10T03:10:14.475Z,64452.44
2022-08-10T03:12:42.376Z,64452.44
2022-08-10T03:15:10.980Z,64452.44
2022-08-10T03:17:57.114Z,64452.44
2022-08-10T03:20:36.939Z,64452.44
2022-08-10T03:23:09.294Z,64452.44
2022-08-10T03:25:35.905Z,64452.44
2022-08-10T03:28:02.554Z,64452.44
2022-08-10T03:30:33.364Z,64452.44
2022-08-10T03:33:02.408Z,64452.44
2022-08-10T03:35:29.045Z,64452.44
2022-08-10T03:37:58.159Z,64452.44
2022-08-10T03:40:44.819Z,64452.44
2022-08-10T03:43:17.259Z,64452.44
2022-08-10T03:45:55.269Z,64452.44
2022-08-10T03:48:24.081Z,64452.44
2022-08-10T03:50:52.724Z,64452.44
2022-08-10T03:53:25.319Z,64452.44
2022-08-10T03:56:29.275Z,64452.44
2022-08-10T03:58:53.099Z,64452.44
2022-08-10T04:01:19.580Z,64452.44
2022-08-10T04:03:49.733Z,64452.44
2022-08-10T04:06:36.328Z,64452.44
2022-08-10T04:09:02.977Z,64452.44
2022-08-10T04:11:29.384Z,64452.44
2022-08-10T04:13:55.776Z,64452.44
2022-08-10T04:16:22.174Z,64452.44
2022-08-10T04:18:48.533Z,64452.44
2022-08-10T04:21:17.237Z,64452.44
2022-08-10T04:23:48.848Z,64452.44
2022-08-10T04:26:19.135Z,64452.44
2022-08-10T04:28:45.542Z,64452.44
2022-08-10T04:31:15.109Z,64452.44
2022-08-10T04:33:43.173Z,64452.44
2022-08-10T04:36:10.544Z,64452.44
2022-08-10T04:38:37.157Z,64452.44
2022-08-10T04:41:03.706Z,64452.44
2022-08-10T04:43:30.513Z,64452.44
2022-08-10T04:45:56.933Z,64452.44
2022-08-10T04:48:41.075Z,64452.44
2022-08-10T04:51:16.869Z,64452.44
2022-08-10T04:54:05.771Z,64452.44
2022-08-10T04:56:32.584Z,64452.44
2022-08-10T04:58:59.695Z,64452.44
2022-08-10T05:01:26.132Z,64452.44
2022-08-10T05:04:35.364Z,64452.44
2022-08-10T05:06:39.022Z,64452.44
2022-08-10T05:09:05.422Z,64452.44
2022-08-10T05:11:31.834Z,64452.44
2022-08-10T05:13:58.192Z,64452.44
2022-08-10T05:16:31.890Z,64452.44
2022-08-10T05:18:59.110Z,64452.44
2022-08-10T05:21:56.991Z,64452.44
2022-08-10T05:24:11.900Z,64452.44
2022-08-10T05:26:42.464Z,64452.44
2022-08-10T05:29:24.645Z,64452.44
2022-08-10T05:31:51.201Z,64452.44
2022-08-10T05:34:20.511Z,64452.44
2022-08-10T05:36:47.833Z,64452.44
2022-08-10T05:39:14.977Z,64452.44
2022-08-10T05:41:46.057Z,64452.44
2022-08-10T05:44:13.496Z,64452.44
2022-08-10T05:46:40.231Z,64452.44
2022-08-10T05:49:06.617Z,64452.44
2022-08-10T05:51:33.073Z,64452.44
2022-08-10T05:54:04.909Z,64452.44
2022-08-10T05:56:54.726Z,64452.44
2022-08-10T06:00:11.182Z,64452.44
2022-08-10T06:02:31.215Z,64452.44
2022-08-10T06:04:55.416Z,64452.44
2022-08-10T06:07:23.085Z,64452.44
2022-08-10T06:09:59.460Z,64452.44
2022-08-10T06:12:30.098Z,64452.44
2022-08-10T06:15:05.551Z,64452.44
2022-08-10T06:17:33.061Z,64452.44
2022-08-10T06:20:00.089Z,64452.44
2022-08-10T06:22:27.518Z,64452.44
2022-08-10T06:25:26.922Z,64452.44
2022-08-10T06:27:42.328Z,64452.44
2022-08-10T06:30:20.432Z,64452.44
2022-08-10T06:32:52.424Z,64452.44
2022-08-10T06:35:19.517Z,64452.44
2022-08-10T06:37:50.643Z,64452.44
2022-08-10T06:40:18.969Z,64452.44
2022-08-10T06:42:48.873Z,64452.44
2022-08-10T06:45:23.297Z,64452.44
2022-08-10T06:47:53.832Z,64452.44
2022-08-10T06:50:44.605Z,64452.44
2022-08-10T06:53:16.968Z,64452.44
2022-08-10T06:55:55.638Z,64452.44
2022-08-10T06:58:26.647Z,64452.44
2022-08-10T07:00:55.122Z,64452.44
2022-08-10T07:03:26.160Z,64452.44
2022-08-10T07:05:54.083Z,64452.44
2022-08-10T07:08:23.014Z,64452.44
2022-08-10T07:10:51.745Z,64452.44
2022-08-10T07:14:14.726Z,64452.44
2022-08-10T07:16:09.281Z,64452.44
2022-08-10T07:18:36.405Z,64452.44
2022-08-10T07:21:04.160Z,64452.44
2022-08-10T07:23:58.843Z,64452.44
2022-08-10T07:26:18.797Z,64452.44
2022-08-10T07:28:48.109Z,64452.44
2022-08-10T07:31:36.854Z,64452.44
2022-08-10T07:34:07.005Z,64452.44
2022-08-10T07:36:35.396Z,64452.44
2022-08-10T07:39:02.127Z,64452.44
2022-08-10T07:41:31.833Z,64452.44
2022-08-10T07:44:03.074Z,64452.44
2022-08-10T07:46:30.986Z,64452.44
2022-08-10T07:49:19.251Z,64452.44
2022-08-10T07:51:54.873Z,64452.44
2022-08-10T07:54:25.223Z,64452.44
2022-08-10T07:56:58.575Z,64452.44
2022-08-10T07:59:37.718Z,64452.44
2022-08-10T08:02:08.592Z,64452.44
2022-08-10T08:04:35.228Z,64452.44
2022-08-10T08:07:04.360Z,64452.44
2022-08-10T08:09:32.279Z,64452.44
2022-08-10T08:11:59.904Z,64452.44
2022-08-10T08:14:27.334Z,64452.44
2022-08-10T08:16:55.593Z,64452.44
2022-08-10T08:19:28.472Z,64452.44
2022-08-10T08:24:14.785Z,64452.44
2022-08-10T08:24:52.302Z,64452.44
2022-08-10T08:27:20.222Z,64452.44
2022-08-10T08:29:49.308Z,64452.44
2022-08-10T08:32:18.842Z,64452.44
2022-08-10T08:34:47.246Z,64452.44
2022-08-10T08:37:18.856Z,64452.44
2022-08-10T08:40:06.413Z,64452.44
2022-08-10T08:43:04.817Z,64452.44
2022-08-10T08:46:01.028Z,64452.44
2022-08-10T08:49:10.917Z,64452.44
2022-08-10T08:52:09.580Z,64452.44
2022-08-10T08:54:52.837Z,64452.44
2022-08-10T08:57:49.975Z,64452.44
2022-08-10T09:00:21.953Z,64452.44
2022-08-10T09:02:55.262Z,64452.44
2022-08-10T09:05:58.835Z,64452.44
2022-08-10T09:08:49.018Z,64452.44
2022-08-10T09:11:21.318Z,64452.44
2022-08-10T09:14:01.900Z,64452.44
2022-08-10T09:16:50.394Z,64452.44
2022-08-10T09:19:59.376Z,64452.44
2022-08-10T09:22:43.017Z,64452.44
2022-08-10T09:25:20.359Z,64452.44
2022-08-10T09:28:08.179Z,64452.44
2022-08-10T09:31:03.165Z,64452.44
2022-08-10T09:36:25.571Z,64452.44
2022-08-10T09:38:01.176Z,64452.44
2022-08-10T09:41:00.414Z,64452.44
2022-08-10T09:43:49.503Z,64452.44
2022-08-10T09:46:52.074Z,64452.44
2022-08-10T09:49:54.880Z,64452.44
2022-08-10T09:52:58.821Z,64452.44
2022-08-10T09:56:19.383Z,64452.44
2022-08-10T09:58:49.832Z,64452.44
2022-08-10T10:02:02.552Z,64452.44
2022-08-10T10:04:28.313Z,64452.44
2022-08-10T10:07:05.671Z,64452.44
2022-08-10T10:09:39.619Z,64452.44
2022-08-10T10:12:48.053Z,64452.44
2022-08-10T10:15:36.269Z,64452.44
2022-08-10T10:18:02.785Z,64452.44
2022-08-10T10:20:42.040Z,64452.44
2022-08-10T10:23:23.612Z,64452.44
2022-08-10T10:25:59.354Z,64452.44
2022-08-10T10:29:15.317Z,64452.44
2022-08-10T10:31:39.152Z,64452.44
2022-08-10T10:34:52.046Z,64452.44
2022-08-10T10:37:20.759Z,64452.44
2022-08-10T10:40:08.845Z,64452.44
2022-08-10T10:42:49.055Z,64452.44
2022-08-10T10:45:31.509Z,64452.44
2022-08-10T10:48:28.992Z,64452.44
2022-08-10T10:51:26.185Z,64452.44
2022-08-10T10:54:13.169Z,64452.44
2022-08-10T10:56:53.354Z,64452.44
2022-08-10T10:59:53.947Z,64452.44
2022-08-10T11:02:38.839Z,64452.44
2022-08-10T11:05:29.662Z,64452.44
2022-08-10T11:08:04.793Z,64452.44
2022-08-10T11:10:53.165Z,64452.44
2022-08-10T11:14:26.038Z,64452.44
2022-08-10T11:16:38.730Z,64452.44
2022-08-10T11:20:02.107Z,64452.44
2022-08-10T11:22:44.388Z,64452.44
2022-08-10T11:25:36.178Z,64452.44
2022-08-10T11:28:08.354Z,64452.44
2022-08-10T11:30:40.497Z,64452.44
2022-08-10T11:33:46.755Z,64452.44
2022-08-10T11:36:50.897Z,64452.44
2022-08-10T11:39:55.853Z,64452.44
2022-08-10T11:42:36.303Z,64452.44
2022-08-10T11:45:10.191Z,64452.44
2022-08-10T11:47:53.435Z,64452.44
2022-08-10T11:50:31.842Z,64452.44
2022-08-10T11:53:15.593Z,64452.44
2022-08-10T11:55:45.374Z,64452.44
2022-08-10T11:58:32.437Z,64452.44
2022-08-10T12:01:08.888Z,64452.44
2022-08-10T12:03:38.347Z,64452.44
2022-08-10T12:06:09.717Z,64452.44
2022-08-10T12:10:06.305Z,64452.44
2022-08-10T12:11:26.396Z,64452.44
2022-08-10T12:14:21.785Z,64452.44
2022-08-10T12:17:00.077Z,64452.44
2022-08-10T12:19:59.975Z,64452.44
2022-08-10T12:22:55.008Z,64452.44
2022-08-10T12:25:55.707Z,64452.44
2022-08-10T12:28:50.783Z,64452.44
2022-08-10T12:31:13.337Z,64452.44
2022-08-10T12:34:02.915Z,64452.44
2022-08-10T12:36:37.848Z,64452.44
2022-08-10T12:39:22.099Z,64452.44
2022-08-10T12:41:59.808Z,64452.44
2022-08-10T12:44:41.317Z,64452.44
2022-08-10T12:47:50.229Z,64452.44
2022-08-10T12:50:33.839Z,64452.44
2022-08-10T12:53:15.097Z,64452.44
2022-08-10T12:55:42.038Z,64452.44
2022-08-10T12:58:59.690Z,64452.44
2022-08-10T13:01:16.316Z,64452.44
2022-08-10T13:04:20.582Z,64452.44
2022-08-10T13:06:35.190Z,64452.44
2022-08-10T13:09:12.897Z,64452.44
2022-08-10T13:12:39.039Z,64452.44
2022-08-10T13:14:46.240Z,64452.44
2022-08-10T13:17:23.665Z,64452.44
2022-08-10T13:19:55.430Z,64452.44
2022-08-10T13:22:28.884Z,64452.44
2022-08-10T13:25:01.469Z,64452.44
2022-08-10T13:28:00.632Z,64452.44
2022-08-10T13:30:37.399Z,64452.44
2022-08-10T13:33:07.303Z,64452.44
2022-08-10T13:35:36.064Z,64452.44
2022-08-10T13:38:05.108Z,64452.44
2022-08-10T13:40:32.746Z,64452.44
2022-08-10T13:43:01.733Z,64452.44
2022-08-10T13:45:29.050Z,64452.44
2022-08-10T13:48:10.676Z,64452.44
2022-08-10T13:50:40.686Z,64452.44
2022-08-10T13:53:15.767Z,64452.44
2022-08-10T13:55:53.983Z,64452.44
2022-08-10T13:58:29.988Z,64452.44
2022-08-10T14:00:59.553Z,64452.44
2022-08-10T14:03:27.404Z,64452.44
2022-08-10T14:05:56.613Z,64452.44
2022-08-10T14:08:26.478Z,64452.44
2022-08-10T14:11:01.399Z,64452.44
2022-08-10T14:13:40.544Z,64452.44
2022-08-10T14:16:09.257Z,64452.44
2022-08-10T14:18:37.207Z,64452.44
2022-08-10T14:21:04.832Z,64452.44
2022-08-10T14:23:32.375Z,64452.44
2022-08-10T14:26:07.993Z,64452.44
2022-08-10T14:28:58.057Z,64452.44
2022-08-10T14:31:31.089Z,64452.44
2022-08-10T14:34:00.866Z,64452.44
2022-08-10T14:36:36.773Z,64452.44
2022-08-10T14:39:06.860Z,64452.44
2022-08-10T14:42:01.130Z,64452.44
2022-08-10T14:44:24.805Z,64452.44
2022-08-10T14:46:55.857Z,64452.44
2022-08-10T14:49:27.082Z,64452.44
2022-08-10T14:52:01.185Z,64452.44
2022-08-10T14:54:30.192Z,64452.44
2022-08-10T14:57:11.413Z,64452.44
2022-08-10T15:00:24.111Z,64452.44
2022-08-10T15:02:40.888Z,64452.44
2022-08-10T15:05:22.095Z,64452.44
2022-08-10T15:07:59.318Z,64452.44
2022-08-10T15:10:28.076Z,64452.44
2022-08-10T15:12:58.828Z,64452.44
2022-08-10T15:15:28.952Z,64452.44
2022-08-10T15:17:58.773Z,64452.44
2022-08-10T15:20:27.681Z,64452.44
2022-08-10T15:23:29.903Z,64452.44
2022-08-10T15:26:10.786Z,64452.44
2022-08-10T15:29:23.186Z,64452.44
2022-08-10T15:31:34.496Z,64452.44
2022-08-10T15:34:22.406Z,64452.44
2022-08-10T15:37:36.304Z,64452.44
2022-08-10T15:40:25.570Z,64452.44
2022-08-10T15:43:20.714Z,64452.44
2022-08-10T15:46:11.839Z,64452.44
2022-08-10T15:48:52.584Z,64452.44
2022-08-10T15:51:53.667Z,64452.44
2022-08-10T15:54:33.552Z,64452.44
2022-08-10T15:57:06.244Z,64452.44
2022-08-10T15:59:43.203Z,64452.44
2022-08-10T16:02:17.193Z,64452.44
2022-08-10T16:04:58.113Z,64452.44
2022-08-10T16:07:53.443Z,64452.44
2022-08-10T16:10:36.644Z,64452.44
2022-08-10T16:13:50.663Z,64452.44
2022-08-10T16:16:01.745Z,64452.44
2022-08-10T16:18:36.366Z,64452.44
2022-08-10T16:21:05.696Z,64452.44
2022-08-10T16:23:37.665Z,64452.44
2022-08-10T16:26:17.464Z,64452.44
2022-08-10T16:28:51.765Z,64452.44
2022-08-10T16:31:24.758Z,64452.44
2022-08-10T16:33:55.160Z,64452.44
2022-08-10T16:36:28.800Z,64452.44
2022-08-10T16:38:56.430Z,64452.44
2022-08-10T16:42:04.505Z,64452.44
2022-08-10T16:44:15.142Z,64452.44
2022-08-10T16:46:44.813Z,64452.44
2022-08-10T16:49:13.532Z,64452.44
2022-08-10T16:51:44.649Z,64452.44
2022-08-10T16:54:11.913Z,64452.44
2022-08-10T16:56:48.778Z,64452.44
2022-08-10T16:59:21.159Z,64452.44
2022-08-10T17:01:53.975Z,64452.44
2022-08-10T17:04:23.164Z,64452.44
2022-08-10T17:07:14.246Z,64452.44
2022-08-10T17:09:45.010Z,64452.44
2022-08-10T17:12:14.025Z,64452.44
2022-08-10T17:14:43.247Z,64452.44
2022-08-10T17:17:22.677Z,64452.44
2022-08-10T17:19:50.654Z,64452.44
2022-08-10T17:22:20.196Z,64452.44
2022-08-10T17:24:52.733Z,64452.44
2022-08-10T17:28:05.446Z,64452.44
2022-08-10T17:30:15.620Z,64452.44
2022-08-10T17:32:45.558Z,64452.44
2022-08-10T17:35:23.507Z,64452.44
2022-08-10T17:37:57.198Z,64452.44
2022-08-10T17:40:27.474Z,64452.44
2022-08-10T17:42:55.628Z,64452.44
2022-08-10T17:45:48.020Z,64452.44
2022-08-10T17:48:10.382Z,64452.44
2022-08-10T17:50:40.612Z,64452.44
2022-08-10T17:53:18.742Z,64452.44
2022-08-10T17:55:48.144Z,64452.44
2022-08-10T17:58:20.077Z,64452.44
2022-08-10T18:00:54.932Z,64452.44
2022-08-10T18:03:28.485Z,64452.44
2022-08-10T18:05:59.821Z,64452.44
2022-08-10T18:08:29.982Z,64452.44
2022-08-10T18:10:58.381Z,64452.44
2022-08-10T18:13:28.368Z,64452.44
2022-08-10T18:16:21.297Z,64452.44
2022-08-10T18:18:57.537Z,64452.44
2022-08-10T18:21:30.894Z,64452.44
2022-08-10T18:24:06.497Z,64452.44
2022-08-10T18:26:38.765Z,64452.44
2022-08-10T18:29:12.485Z,64452.44
2022-08-10T18:31:43.578Z,64452.44
2022-08-10T18:34:15.082Z,64452.44
2022-08-10T18:36:44.165Z,64452.44
2022-08-10T18:39:15.610Z,64452.44
2022-08-10T18:42:00.352Z,64452.44
2022-08-10T18:44:35.940Z,64452.44
2022-08-10T18:47:12.945Z,64452.44
2022-08-10T18:49:57.850Z,64452.44
2022-08-10T18:52:27.650Z,64452.44
2022-08-10T18:55:02.832Z,64452.44
2022-08-10T18:58:00.372Z,64452.44
2022-08-10T19:01:01.293Z,64452.44
2022-08-10T19:03:53.580Z,64452.44
2022-08-10T19:06:38.973Z,64452.44
2022-08-10T19:09:46.582Z,64452.44
2022-08-10T19:12:30.801Z,64452.44
2022-08-10T19:15:11.497Z,64452.44
2022-08-10T19:18:03.530Z,64452.44
2022-08-10T19:20:53.943Z,64452.44
2022-08-10T19:23:26.504Z,64452.44
2022-08-10T19:26:42.280Z,64452.44
2022-08-10T19:30:07.911Z,64452.44
2022-08-10T19:32:24.971Z,64452.44
2022-08-10T19:35:03.383Z,64452.44
2022-08-10T19:38:08.498Z,64452.44
2022-08-10T19:41:10.024Z,64452.44
2022-08-10T19:44:02.345Z,64452.44
2022-08-10T19:46:50.882Z,64452.44
2022-08-10T19:49:57.418Z,64452.44
2022-08-10T19:52:42.449Z,64452.44
2022-08-10T19:55:28.421Z,64452.44
2022-08-10T19:58:07.111Z,64452.44
2022-08-10T20:01:02.591Z,64452.44
2022-08-10T20:03:41.550Z,64452.44
2022-08-10T20:06:20.080Z,64452.44
2022-08-10T20:09:03.645Z,64452.44
2022-08-10T20:12:04.434Z,64452.44
2022-08-10T20:14:42.414Z,64452.44
2022-08-10T20:18:04.622Z,97786.28
2022-08-10T20:21:12.852Z,97788.81
2022-08-10T20:24:08.549Z,97795.03
2022-08-10T20:26:52.550Z,97785.72
2022-08-10T20:29:58.536Z,97789.16
2022-08-10T20:32:24.414Z,97783.47
2022-08-10T20:34:56.916Z,97787.06
2022-08-10T20:38:03.158Z,97781.97
2022-08-10T20:40:39.090Z,97788.47
2022-08-10T20:43:28.615Z,97787.72
2022-08-10T20:46:27.710Z,97795.03
2022-08-10T20:49:13.138Z,97790.09
2022-08-10T20:51:58.361Z,97793.06
2022-08-10T20:54:52.205Z,97785.72
2022-08-10T20:57:56.847Z,97784.53
2022-08-10T21:00:40.730Z,97786.38
2022-08-10T21:03:22.158Z,97786.84
2022-08-10T21:06:00.848Z,97782.75
2022-08-10T21:08:33.277Z,97783.44
2022-08-10T21:11:11.031Z,97778.41
2022-08-10T21:14:25.089Z,97787.00
2022-08-10T21:17:05.437Z,97785.06
2022-08-10T21:20:30.495Z,97777.44
2022-08-10T21:22:59.367Z,97775.53
2022-08-10T21:25:48.957Z,97778.78
2022-08-10T21:28:29.025Z,97778.78
2022-08-10T21:31:33.243Z,97782.63
2022-08-10T21:34:18.478Z,97784.56
2022-08-10T21:37:08.122Z,97778.81
2022-08-10T21:39:46.919Z,97784.91
2022-08-10T21:42:52.868Z,97784.09
2022-08-10T21:46:08.140Z,97774.81
2022-08-10T21:49:19.752Z,97779.44
2022-08-10T21:52:20.729Z,97773.75
2022-08-10T21:55:19.556Z,97782.75
2022-08-10T21:58:14.406Z,97775.66
2022-08-10T22:01:13.517Z,97780.56
2022-08-10T22:04:01.971Z,97779.19
2022-08-10T22:09:59.137Z,97776.19
2022-08-10T22:12:51.022Z,97780.81
2022-08-10T22:16:03.141Z,97789.78
2022-08-10T22:18:58.722Z,97785.72
2022-08-10T22:22:20.099Z,97784.09
2022-08-10T22:25:45.958Z,97779.78
2022-08-10T22:28:37.313Z,97778.13
2022-08-10T22:31:28.474Z,97776.25
2022-08-10T22:31:47.906Z,97776.78
2022-08-10T22:34:39.001Z,97789.06
2022-08-10T22:37:31.829Z,97783.88
2022-08-10T22:40:23.168Z,97781.91
2022-08-10T22:43:12.437Z,97782.94
2022-08-10T22:46:12.327Z,97784.91
2022-08-10T22:48:59.214Z,97790.09
2022-08-10T22:51:37.384Z,97790.41
2022-08-10T22:54:51.024Z,97787.09
2022-08-10T22:57:37.878Z,97781.31
2022-08-10T23:00:16.382Z,97788.34
2022-08-10T23:03:02.646Z,97788.88
2022-08-10T23:05:38.906Z,97790.56
2022-08-10T23:08:19.594Z,97791.09
2022-08-10T23:11:01.813Z,97790.53
2022-08-10T23:13:36.179Z,97792.63
2022-08-10T23:16:32.798Z,97791.53
2022-08-10T23:19:11.437Z,97790.75
2022-08-10T23:22:04.090Z,97783.38
2022-08-10T23:24:48.601Z,97788.25
2022-08-10T23:27:38.705Z,97783.06
2022-08-10T23:30:11.084Z,97792.09
2022-08-10T23:32:47.709Z,97782.56
2022-08-10T23:36:27.175Z,97783.66
2022-08-10T23:38:07.915Z,97780.69
2022-08-10T23:40:36.118Z,97769.22
2022-08-10T23:43:04.649Z,97773.44
2022-08-10T23:45:53.221Z,97772.69
2022-08-10T23:48:20.351Z,97774.47
2022-08-10T23:50:58.491Z,97770.19
2022-08-10T23:53:38.384Z,97771.59
2022-08-10T23:56:18.425Z,97769.16
2022-08-10T23:58:52.560Z,97776.28
